Terminal Aerodrome Forecast
Issued by NWS

Home | Current Version | Previous Version | Graphics & Text | Print | Product List | Glossary On
Versions: 1 2 3 4 5 6 7 8 9 10 11 12 13 14
000
FTUS43 KTOP 280500
TAFMHK
TAF
KMHK 280520Z 2806/2906 24003KT P6SM SKC
     FM281400 21007KT P6SM FEW200
     FM290100 15003KT P6SM SCT150=

USA.gov is the U.S. government's official web portal to all federal, state and local government web resources and services.